Time;durP1;ratioP1;P1;durP2;ratioP2;P2;SDS_P1;SDS_P2;PMS_P1;PMS_P2;Temp;Humidity;BMP_temperature;BMP_pressure;BME280_temperature;BME280_humidity;BME280_pressure;Samples;Min_cycle;Max_cycle;Signal;HPM_P1;HPM_P2
2023/09/18 00:01:39;;;;;;;;;;;22.30;47.20;;;21.68;47.22;100939.44;12130124;19;19927;-87
2023/09/18 00:05:40;;;;;;;;;;;22.30;47.20;;;21.56;47.77;100942.34;12133965;19;20189;-87
2023/09/18 00:09:42;;;;;;;;;;;22.20;47.20;;;21.53;47.65;100944.47;12131908;19;19919;-87
2023/09/18 00:13:44;;;;;;;;;;;22.10;47.20;;;21.51;47.24;100944.59;12136058;19;19919;-87
2023/09/18 00:17:45;;;;;;;;;;;22.10;47.30;;;21.45;47.71;100945.22;12136000;19;20389;-87
2023/09/18 00:21:47;;;;;;;;;;;22.00;47.40;;;21.39;47.59;100944.00;12134913;19;19923;-87
2023/09/18 00:25:48;;;;;;;;;;;21.90;47.40;;;21.33;47.92;100933.94;12134915;19;19934;-87
2023/09/18 00:29:50;;;;;;;;;;;21.90;47.50;;;21.21;47.69;100920.00;12134486;19;19918;-87
2023/09/18 00:33:52;;;;;;;;;;;21.90;47.50;;;21.24;47.76;100926.84;12133173;19;19923;-87
2023/09/18 00:37:53;;;;;;;;;;;21.80;47.50;;;21.25;47.79;100925.84;12134271;19;21149;-87
2023/09/18 00:41:55;;;;;;;;;;;21.80;47.60;;;21.17;47.96;100916.00;12135256;19;19939;-87
2023/09/18 00:45:57;;;;;;;;;;;21.70;47.60;;;21.15;48.13;100914.47;12133692;19;19926;-87
2023/09/18 00:49:58;;;;;;;;;;;21.70;47.60;;;21.12;47.74;100910.28;12129555;19;20296;-87
2023/09/18 00:54:01;;;;;;;;;;;21.70;47.60;;;21.11;47.98;100916.56;12140822;19;19935;-87
2023/09/18 00:58:02;;;;;;;;;;;21.60;47.70;;;21.03;48.02;100908.50;12145457;19;20341;-87
2023/09/18 01:02:04;;;;;;;;;;;21.60;47.80;;;20.99;48.02;100899.19;12144195;19;20445;-87
2023/09/18 01:06:06;;;;;;;;;;;21.60;47.80;;;20.99;48.11;100900.00;12144519;19;20192;-87
2023/09/18 01:10:09;;;;;;;;;;;21.60;47.90;;;20.99;47.96;100896.53;12140616;19;19919;-88
2023/09/18 01:14:31;;;;;;;;;;;21.60;47.90;;;21.04;47.99;100912.03;12143390;19;19947;-87
2023/09/18 01:18:32;;;;;;;;;;;21.60;47.90;;;20.94;48.38;100898.78;12143952;19;20792;-87
2023/09/18 01:22:34;;;;;;;;;;;21.60;47.90;;;20.90;48.31;100902.72;12148149;19;19919;-87
2023/09/18 01:26:35;;;;;;;;;;;21.50;47.90;;;20.77;48.33;100880.00;12144626;19;19922;-87
2023/09/18 01:30:38;;;;;;;;;;;21.50;48.20;;;20.86;48.07;100896.88;12138811;19;20213;-87
2023/09/18 01:34:44;;;;;;;;;;;21.50;48.00;;;20.81;48.37;100891.16;12143970;19;20764;-87
2023/09/18 01:38:46;;;;;;;;;;;21.40;47.90;;;20.73;48.00;100881.28;12139055;19;19919;-87
2023/09/18 01:42:48;;;;;;;;;;;21.30;48.00;;;20.70;48.45;100873.59;12143031;19;19927;-87
2023/09/18 01:46:51;;;;;;;;;;;21.30;48.00;;;20.71;48.30;100885.91;12143925;19;20149;-87
2023/09/18 01:50:53;;;;;;;;;;;21.30;48.10;;;20.63;48.50;100875.19;12139228;19;20288;-87
2023/09/18 01:54:55;;;;;;;;;;;21.30;48.10;;;20.55;48.52;100867.97;12140102;19;19919;-87
2023/09/18 01:58:56;;;;;;;;;;;21.20;48.00;;;20.48;48.43;100858.88;12138868;19;20042;-87
2023/09/18 02:02:58;;;;;;;;;;;21.20;48.10;;;20.58;48.27;100877.44;12141548;19;20020;-87
2023/09/18 02:06:59;;;;;;;;;;;21.20;48.10;;;20.47;48.40;100853.72;12140883;19;20296;-87
2023/09/18 02:11:02;;;;;;;;;;;21.10;48.10;;;20.49;48.64;100854.41;12138173;19;20205;-87
2023/09/18 02:15:06;;;;;;;;;;;21.10;48.10;;;20.41;48.82;100833.06;12140274;19;20183;-87
2023/09/18 02:19:09;;;;;;;;;;;21.10;48.20;;;20.31;48.83;100804.78;12139128;19;19930;-87
2023/09/18 02:23:12;;;;;;;;;;;21.00;48.20;;;20.36;48.33;100814.97;12139770;19;19948;-87
2023/09/18 02:27:14;;;;;;;;;;;21.00;48.20;;;20.37;48.72;100821.09;12139888;19;20376;-87
2023/09/18 02:31:16;;;;;;;;;;;21.00;48.30;;;20.31;48.66;100810.09;12140324;19;20801;-87
2023/09/18 02:35:18;;;;;;;;;;;21.00;48.30;;;20.26;48.75;100796.41;12140499;19;19922;-87
2023/09/18 02:39:19;;;;;;;;;;;20.90;48.30;;;20.27;48.79;100806.03;12137445;19;20176;-87
2023/09/18 02:43:21;;;;;;;;;;;20.90;48.40;;;20.21;48.88;100803.16;12138709;19;19919;-87
2023/09/18 02:47:22;;;;;;;;;;;20.90;48.40;;;20.20;49.08;100791.72;12139267;19;19926;-87
2023/09/18 02:51:24;;;;;;;;;;;20.90;48.40;;;20.09;48.71;100768.00;12136311;19;19922;-87
2023/09/18 02:55:26;;;;;;;;;;;20.80;48.40;;;20.09;48.73;100770.66;12138101;19;19923;-87
2023/09/18 02:59:28;;;;;;;;;;;20.90;48.50;;;20.17;49.32;100792.00;12139435;19;21199;-87
2023/09/18 03:03:30;;;;;;;;;;;20.80;48.50;;;20.13;49.09;100782.66;12139394;19;19923;-87
2023/09/18 03:07:32;;;;;;;;;;;20.80;48.50;;;20.01;49.10;100760.81;12138381;19;19926;-87
2023/09/18 03:11:34;;;;;;;;;;;20.80;48.50;;;20.07;49.13;100770.00;12134392;19;20183;-87
2023/09/18 03:15:36;;;;;;;;;;;20.80;48.50;;;20.08;48.97;100771.66;12136118;19;19931;-87
2023/09/18 03:19:38;;;;;;;;;;;20.70;48.50;;;20.03;48.85;100755.34;12136215;19;19927;-88
2023/09/18 03:23:40;;;;;;;;;;;20.70;48.50;;;19.97;48.91;100755.94;12137250;19;19938;-87
2023/09/18 03:27:42;;;;;;;;;;;20.70;48.50;;;19.99;49.38;100765.41;12138059;19;19947;-88
2023/09/18 03:31:44;;;;;;;;;;;20.70;48.60;;;19.96;49.47;100756.91;12136565;19;20714;-83
2023/09/18 03:35:50;;;;;;;;;;;20.60;48.60;;;19.96;49.04;100764.88;12132270;19;20482;-83
2023/09/18 03:39:54;;;;;;;;;;;20.60;48.60;;;19.93;49.03;100762.47;12127573;19;19971;-83
2023/09/18 03:43:56;;;;;;;;;;;20.60;48.80;;;19.80;49.51;100733.66;12132844;19;20264;-82
2023/09/18 03:47:58;;;;;;;;;;;20.50;48.70;;;19.86;49.31;100746.34;12129342;19;20021;-82
2023/09/18 03:52:00;;;;;;;;;;;20.50;48.70;;;19.82;49.56;100751.09;12128139;19;19922;-82
2023/09/18 03:56:02;;;;;;;;;;;20.50;48.80;;;19.83;49.35;100751.94;12128810;19;19923;-82
2023/09/18 04:00:05;;;;;;;;;;;20.50;48.70;;;19.79;49.15;100743.41;12126373;19;20731;-82
2023/09/18 04:04:13;;;;;;;;;;;20.40;48.80;;;19.71;49.59;100738.00;12131386;19;20681;-82
2023/09/18 04:08:14;;;;;;;;;;;20.40;48.80;;;19.73;49.24;100732.56;12127601;19;19931;-83
2023/09/18 04:12:16;;;;;;;;;;;20.40;48.80;;;19.73;49.61;100729.91;12126160;19;19923;-82
2023/09/18 04:16:17;;;;;;;;;;;20.40;48.90;;;19.72;49.67;100728.25;12128438;19;20268;-82
2023/09/18 04:20:19;;;;;;;;;;;20.40;49.30;;;19.66;49.43;100727.84;12125273;19;19930;-82
2023/09/18 04:24:21;;;;;;;;;;;20.30;48.90;;;19.66;49.48;100724.38;12126118;19;19931;-82
2023/09/18 04:28:23;;;;;;;;;;;20.30;49.00;;;19.65;49.82;100723.47;12131169;19;19953;-83
2023/09/18 04:32:25;;;;;;;;;;;20.30;49.00;;;19.62;49.67;100717.63;12135421;19;19998;-82
2023/09/18 04:36:27;;;;;;;;;;;20.30;49.00;;;19.55;49.81;100706.78;12142409;19;20709;-82
2023/09/18 04:40:32;;;;;;;;;;;20.30;49.00;;;19.54;49.44;100704.28;12138738;19;21337;-82
2023/09/18 04:44:34;;;;;;;;;;;20.20;49.00;;;19.38;49.50;100684.50;12140139;19;20381;-82
2023/09/18 04:48:37;;;;;;;;;;;20.20;49.00;;;19.52;49.74;100701.75;12139005;19;20263;-82
2023/09/18 04:52:40;;;;;;;;;;;20.20;49.00;;;19.41;49.89;100691.34;12139569;19;19927;-82
2023/09/18 04:56:43;;;;;;;;;;;20.20;49.00;;;19.50;49.95;100711.69;12142177;19;19918;-83
2023/09/18 05:00:46;;;;;;;;;;;20.20;49.50;;;19.46;49.86;100695.22;12136951;19;19922;-82
2023/09/18 05:04:48;;;;;;;;;;;20.10;49.10;;;19.44;49.68;100696.34;12142293;19;19923;-82
2023/09/18 05:08:49;;;;;;;;;;;20.10;49.10;;;19.35;49.86;100690.09;12136818;19;19937;-82
2023/09/18 05:12:58;;;;;;;;;;;20.10;49.20;;;19.41;49.75;100699.28;12139387;19;19943;-82
2023/09/18 05:16:59;;;;;;;;;;;20.10;49.30;;;19.39;50.11;100695.97;12143215;19;20233;-83
2023/09/18 05:21:04;;;;;;;;;;;20.00;49.50;;;19.32;49.98;100682.44;12137592;19;19929;-82
2023/09/18 05:25:06;;;;;;;;;;;20.00;49.40;;;19.37;50.19;100693.44;12138719;19;19930;-82
2023/09/18 05:29:10;;;;;;;;;;;20.10;49.50;;;19.36;50.04;100690.91;12138099;19;20300;-83
2023/09/18 05:33:11;;;;;;;;;;;20.00;49.50;;;19.33;49.99;100673.50;12140231;19;19937;-82
2023/09/18 05:37:13;;;;;;;;;;;20.10;49.70;;;19.30;50.30;100671.16;12139857;19;19930;-83
2023/09/18 05:41:15;;;;;;;;;;;20.10;49.80;;;19.38;50.27;100670.44;12135333;19;19922;-82
2023/09/18 05:45:16;;;;;;;;;;;20.20;49.90;;;19.31;50.08;100656.94;12142972;19;19919;-82
2023/09/18 05:49:18;;;;;;;;;;;20.10;50.40;;;19.44;50.27;100672.50;12142412;19;19915;-83
2023/09/18 05:53:20;;;;;;;;;;;20.10;50.40;;;19.49;50.16;100666.78;12142965;19;20264;-83
2023/09/18 05:57:22;;;;;;;;;;;20.20;50.50;;;19.52;50.38;100659.38;12142131;19;19926;-82
2023/09/18 06:01:25;;;;;;;;;;;20.20;50.30;;;19.59;50.53;100641.94;12142339;19;19923;-86
2023/09/18 06:05:26;;;;;;;;;;;20.30;50.80;;;19.59;50.42;100627.84;12146691;19;19930;-85
2023/09/18 06:09:27;;;;;;;;;;;20.40;50.70;;;19.68;50.33;100619.06;12150483;19;19911;-86
2023/09/18 06:13:29;;;;;;;;;;;20.50;50.70;;;19.69;50.54;100604.00;12152029;19;19918;-85
2023/09/18 06:17:31;;;;;;;;;;;20.60;50.80;;;19.83;50.72;100607.00;12154296;19;19939;-86
2023/09/18 06:21:32;;;;;;;;;;;20.70;51.00;;;19.99;50.78;100614.31;12148481;19;19930;-85
2023/09/18 06:25:34;;;;;;;;;;;20.80;50.80;;;19.76;50.82;100563.50;12151809;19;20308;-85
2023/09/18 06:29:38;;;;;;;;;;;20.80;50.90;;;20.18;50.65;100615.16;12152962;19;20491;-85
2023/09/18 06:33:40;;;;;;;;;;;20.90;50.80;;;20.24;50.71;100601.31;12157477;19;19922;-85
2023/09/18 06:37:41;;;;;;;;;;;21.00;50.80;;;20.29;51.08;100589.25;12146475;19;20712;-85
2023/09/18 06:41:43;;;;;;;;;;;21.20;50.60;;;20.39;50.94;100596.28;12139645;19;19929;-85
2023/09/18 06:45:47;;;;;;;;;;;21.30;51.40;;;20.47;50.82;100585.78;12144364;19;19933;-85
2023/09/18 06:49:49;;;;;;;;;;;21.40;51.30;;;20.71;51.11;100599.28;12139191;19;20674;-84
2023/09/18 06:53:51;;;;;;;;;;;21.50;51.20;;;20.83;51.28;100591.91;12144242;19;20284;-85
2023/09/18 06:57:53;;;;;;;;;;;21.60;50.90;;;20.94;50.96;100594.31;12144265;19;19945;-85
2023/09/18 07:01:55;;;;;;;;;;;21.70;51.50;;;20.98;50.92;100576.22;12143976;19;19927;-84
2023/09/18 07:05:57;;;;;;;;;;;21.90;51.30;;;21.18;51.05;100580.34;12143414;19;20315;-85
2023/09/18 07:09:59;;;;;;;;;;;22.00;51.20;;;21.25;50.91;100561.13;12142458;19;20179;-84
2023/09/18 07:14:02;;;;;;;;;;;22.10;50.90;;;21.34;51.24;100558.34;12142557;19;20368;-84
2023/09/18 07:18:04;;;;;;;;;;;22.30;50.90;;;21.29;51.08;100525.31;12140207;19;19945;-85
2023/09/18 07:22:05;;;;;;;;;;;22.40;51.00;;;21.59;51.25;100546.03;12138756;19;19926;-84
2023/09/18 07:26:07;;;;;;;;;;;22.50;50.90;;;21.69;51.40;100532.63;12142374;19;20714;-85
2023/09/18 07:30:10;;;;;;;;;;;22.70;51.00;;;21.86;51.10;100546.78;12137849;19;19914;-85
2023/09/18 07:34:16;;;;;;;;;;;22.80;50.90;;;21.94;50.97;100540.66;12140300;19;20387;-84
2023/09/18 07:38:21;;;;;;;;;;;22.90;51.30;;;22.12;51.35;100540.53;12136954;19;20035;-84
2023/09/18 07:42:26;;;;;;;;;;;23.00;50.90;;;22.19;51.45;100523.75;12141066;19;19943;-84
2023/09/18 07:46:28;;;;;;;;;;;23.20;50.90;;;22.47;51.10;100542.06;12139414;19;20166;-84
2023/09/18 07:50:31;;;;;;;;;;;23.40;51.00;;;22.65;51.41;100534.72;12138736;19;19918;-84
2023/09/18 07:54:33;;;;;;;;;;;23.50;51.20;;;22.85;51.65;100537.88;12139977;19;20207;-85
2023/09/18 07:58:38;;;;;;;;;;;23.80;51.50;;;23.01;51.32;100525.53;12137329;19;19923;-85
2023/09/18 08:02:40;;;;;;;;;;;24.00;51.20;;;23.08;51.63;100506.03;12138465;19;19927;-84
2023/09/18 08:06:41;;;;;;;;;;;24.20;51.50;;;23.52;51.31;100544.66;12138576;19;20660;-84
2023/09/18 08:10:43;;;;;;;;;;;24.40;51.00;;;23.74;51.57;100537.78;12133541;19;19930;-83
2023/09/18 08:14:45;;;;;;;;;;;24.70;50.90;;;23.90;51.51;100515.50;12138309;19;19923;-83
2023/09/18 08:18:47;;;;;;;;;;;24.90;50.90;;;24.08;51.38;100506.19;12135032;19;20773;-84
2023/09/18 08:22:50;;;;;;;;;;;25.10;50.60;;;24.31;51.35;100504.53;12132243;19;20386;-82
2023/09/18 08:26:52;;;;;;;;;;;25.30;50.60;;;24.57;51.52;100523.66;12127088;19;20809;-82
2023/09/18 08:30:53;;;;;;;;;;;25.60;50.60;;;24.80;51.25;100518.28;12123461;19;20010;-82
2023/09/18 08:34:55;;;;;;;;;;;25.80;50.50;;;25.02;51.26;100503.16;12130559;19;19915;-83
2023/09/18 08:38:57;;;;;;;;;;;26.00;50.10;;;25.25;51.37;100502.25;12124871;19;19930;-82
2023/09/18 08:43:03;;;;;;;;;;;26.20;50.10;;;25.39;51.00;100490.72;12126321;19;19942;-82
2023/09/18 08:47:08;;;;;;;;;;;26.50;50.10;;;25.56;50.91;100489.47;12125598;19;20658;-82
2023/09/18 08:51:10;;;;;;;;;;;26.60;49.80;;;25.75;51.44;100495.25;12121138;19;19922;-82
2023/09/18 08:55:13;;;;;;;;;;;26.80;49.30;;;25.94;51.43;100493.81;12124417;19;20002;-82
2023/09/18 08:59:15;;;;;;;;;;;27.00;49.50;;;26.05;51.34;100483.41;12119573;19;19959;-82
2023/09/18 09:03:17;;;;;;;;;;;27.20;49.20;;;26.34;50.93;100483.47;12128425;19;19918;-83
2023/09/18 09:07:19;;;;;;;;;;;27.30;49.30;;;26.44;51.15;100466.03;12128099;19;19926;-83
2023/09/18 09:11:20;;;;;;;;;;;27.50;47.50;;;26.63;50.62;100466.41;12127668;19;20347;-83
2023/09/18 09:15:25;;;;;;;;;;;27.70;47.80;;;26.74;50.87;100443.59;12139805;19;19940;-83
2023/09/18 09:19:42;;;;;;;;;;;27.80;48.70;;;26.85;50.79;100437.69;12133999;19;19923;-83
2023/09/18 09:23:52;;;;;;;;;;;27.90;48.90;;;27.06;50.66;100447.47;12139469;19;19930;-83
2023/09/18 09:27:54;;;;;;;;;;;28.10;48.80;;;27.20;50.64;100438.47;12136153;19;20717;-84
2023/09/18 09:31:57;;;;;;;;;;;28.30;47.80;;;27.31;50.53;100434.41;12132443;19;20036;-83
2023/09/18 09:35:59;;;;;;;;;;;28.40;48.50;;;27.41;50.31;100431.31;12141108;19;19942;-83
2023/09/18 09:40:08;;;;;;;;;;;28.50;48.60;;;27.38;50.49;100403.03;12135502;19;20316;-82
2023/09/18 09:44:11;;;;;;;;;;;28.50;47.50;;;27.57;50.36;100407.63;12133629;19;20440;-83
2023/09/18 09:48:13;;;;;;;;;;;28.60;48.00;;;27.62;50.31;100392.78;12131849;19;19918;-84
2023/09/18 09:52:21;;;;;;;;;;;28.70;48.30;;;27.58;50.75;100374.41;12134110;19;20709;-83
2023/09/18 09:56:39;;;;;;;;;;;28.70;48.20;;;27.75;50.11;100393.59;12134019;19;20315;-83
2023/09/18 10:00:45;;;;;;;;;;;28.80;47.80;;;27.82;50.35;100396.34;12138610;19;19962;-83
2023/09/18 10:04:48;;;;;;;;;;;28.80;47.40;;;27.85;49.86;100382.50;12135592;19;19915;-82
2023/09/18 10:08:50;;;;;;;;;;;28.80;48.20;;;27.96;50.02;100405.22;12136144;19;20236;-83
2023/09/18 10:12:53;;;;;;;;;;;28.90;48.40;;;28.00;50.20;100396.56;12148603;19;19947;-84
2023/09/18 10:16:56;;;;;;;;;;;29.00;48.20;;;28.13;49.58;100379.59;12153116;19;21043;-82
2023/09/18 10:21:11;;;;;;;;;;;29.00;48.00;;;28.21;49.96;100392.78;12128712;19;19919;-83
2023/09/18 10:25:17;;;;;;;;;;;29.20;46.80;;;28.14;49.55;100373.19;12132380;19;20376;-83
2023/09/18 10:29:20;;;;;;;;;;;29.30;47.60;;;28.31;49.81;100389.69;12128281;19;20587;-83
2023/09/18 10:33:22;;;;;;;;;;;29.30;46.40;;;28.37;49.68;100383.47;12119332;19;19919;-83
2023/09/18 10:37:24;;;;;;;;;;;29.30;47.40;;;28.45;48.97;100402.06;12119663;19;19935;-83
2023/09/18 10:41:27;;;;;;;;;;;29.30;46.00;;;28.52;48.99;100396.72;12121600;19;19923;-82
2023/09/18 10:45:29;;;;;;;;;;;29.40;46.50;;;28.52;49.09;100385.13;12118331;19;20354;-82
2023/09/18 10:49:31;;;;;;;;;;;29.40;44.00;;;28.49;49.01;100397.13;12109770;19;20347;-82
2023/09/18 10:53:33;;;;;;;;;;;29.40;46.30;;;28.58;48.97;100405.78;12112772;19;20751;-83
2023/09/18 10:57:38;;;;;;;;;;;29.40;44.10;;;28.59;48.75;100396.69;12114076;19;20341;-81
2023/09/18 11:01:40;;;;;;;;;;;29.50;46.10;;;28.70;48.69;100398.69;12107457;19;19923;-83
2023/09/18 11:05:43;;;;;;;;;;;29.50;45.90;;;28.77;48.76;100391.44;12114111;19;19919;-83
2023/09/18 11:09:45;;;;;;;;;;;29.60;43.20;;;28.92;48.59;100396.53;12108658;19;20867;-82
2023/09/18 11:13:50;;;;;;;;;;;29.60;45.80;;;28.96;48.38;100375.47;12113289;19;19926;-82
2023/09/18 11:18:02;;;;;;;;;;;29.80;45.80;;;29.07;48.46;100378.31;12113253;19;20300;-82
2023/09/18 11:22:12;;;;;;;;;;;29.80;46.40;;;29.12;48.40;100377.69;12113528;19;19951;-83
2023/09/18 11:26:15;;;;;;;;;;;29.90;46.40;;;29.14;48.11;100372.91;12112626;19;20774;-83
2023/09/18 11:30:17;;;;;;;;;;;30.00;44.20;;;29.14;48.23;100402.50;12110418;19;20670;-83
2023/09/18 11:34:26;;;;;;;;;;;30.00;45.50;;;29.14;47.76;100401.66;12111474;19;19926;-82
2023/09/18 11:38:28;;;;;;;;;;;29.90;45.20;;;29.08;48.01;100392.56;12118039;19;19939;-83
2023/09/18 11:42:30;;;;;;;;;;;29.90;45.00;;;29.09;47.89;100403.13;12118500;19;20303;-82
2023/09/18 11:46:32;;;;;;;;;;;29.90;45.80;;;28.99;47.99;100400.03;12114016;19;20741;-82
2023/09/18 11:50:35;;;;;;;;;;;29.80;44.80;;;29.01;47.82;100400.66;12107425;19;20846;-82
2023/09/18 11:54:39;;;;;;;;;;;29.70;45.20;;;29.02;47.66;100402.31;12110379;19;19922;-82
2023/09/18 11:58:50;;;;;;;;;;;29.80;43.30;;;28.99;47.57;100408.09;12110236;19;20811;-83
2023/09/18 12:02:52;;;;;;;;;;;29.80;45.90;;;28.99;47.63;100394.66;12113498;19;21376;-83
2023/09/18 12:06:53;;;;;;;;;;;29.70;45.10;;;29.00;47.87;100395.47;12114224;19;19919;-83
2023/09/18 12:10:55;;;;;;;;;;;29.70;45.00;;;29.01;47.51;100389.09;12106489;19;19955;-82
2023/09/18 12:14:56;;;;;;;;;;;29.60;45.80;;;29.01;47.54;100378.34;12112444;19;20018;-82
2023/09/18 12:18:59;;;;;;;;;;;29.70;45.80;;;28.98;47.23;100359.94;12108560;19;19936;-82
2023/09/18 12:23:02;;;;;;;;;;;29.70;46.40;;;29.07;47.41;100385.56;12111533;19;19918;-83
2023/09/18 12:27:04;;;;;;;;;;;29.80;46.40;;;29.08;47.49;100373.75;12112874;19;20040;-83
2023/09/18 12:31:09;;;;;;;;;;;29.70;46.10;;;29.09;47.50;100373.56;12103884;19;20755;-83
2023/09/18 12:35:13;;;;;;;;;;;29.80;46.30;;;29.16;47.64;100370.00;12104667;19;19955;-83
2023/09/18 12:39:16;;;;;;;;;;;29.80;45.80;;;29.23;47.23;100352.78;12105962;19;19919;-83
2023/09/18 12:43:17;;;;;;;;;;;29.90;45.10;;;29.26;47.46;100338.06;12105221;19;19934;-83
2023/09/18 12:47:19;;;;;;;;;;;29.90;46.20;;;29.29;47.45;100349.22;12109226;19;20920;-83
2023/09/18 12:51:31;;;;;;;;;;;30.00;45.40;;;29.34;47.36;100343.19;12113738;19;20801;-83
2023/09/18 12:55:33;;;;;;;;;;;30.00;43.80;;;29.32;47.10;100347.97;12122708;19;19925;-82
2023/09/18 12:59:35;;;;;;;;;;;30.00;44.90;;;29.34;46.99;100344.00;12127674;19;20812;-82
2023/09/18 13:03:45;;;;;;;;;;;30.10;45.80;;;29.42;47.18;100342.94;12134089;19;19918;-82
2023/09/18 13:07:47;;;;;;;;;;;30.10;45.90;;;29.43;46.86;100339.19;12133162;19;20745;-82
2023/09/18 13:11:53;;;;;;;;;;;30.10;45.00;;;29.43;46.94;100344.56;12132692;19;19918;-83
2023/09/18 13:16:00;;;;;;;;;;;30.10;44.40;;;29.42;46.68;100347.50;12137309;19;19923;-82
2023/09/18 13:20:09;;;;;;;;;;;30.10;45.30;;;29.38;46.92;100355.19;12138976;19;19933;-83
2023/09/18 13:24:25;;;;;;;;;;;30.10;45.40;;;29.38;47.06;100374.00;12140234;19;19915;-82
2023/09/18 13:28:27;;;;;;;;;;;30.00;44.30;;;29.31;46.61;100365.97;12132820;19;20002;-82
2023/09/18 13:32:28;;;;;;;;;;;30.00;45.70;;;29.31;46.65;100365.16;12132135;19;19950;-83
2023/09/18 13:36:30;;;;;;;;;;;30.00;45.90;;;29.34;46.45;100373.59;12133577;19;20673;-83
2023/09/18 13:40:33;;;;;;;;;;;30.00;46.20;;;29.31;46.73;100376.72;12131165;19;19927;-82
2023/09/18 13:44:35;;;;;;;;;;;29.90;46.50;;;29.30;46.44;100390.38;12133030;19;20715;-82
2023/09/18 13:48:38;;;;;;;;;;;29.90;46.30;;;29.30;46.84;100398.44;12133199;19;20689;-82
2023/09/18 13:52:40;;;;;;;;;;;29.80;46.00;;;29.17;46.41;100367.09;12135518;19;19930;-82
2023/09/18 13:56:41;;;;;;;;;;;29.80;45.70;;;29.22;46.32;100369.13;12131515;19;19923;-83
2023/09/18 14:00:43;;;;;;;;;;;29.80;46.00;;;29.16;46.83;100361.94;12132671;19;20013;-83
2023/09/18 14:04:45;;;;;;;;;;;29.80;46.30;;;29.06;46.63;100352.47;12141988;19;19931;-85
2023/09/18 14:08:47;;;;;;;;;;;29.70;46.60;;;29.10;46.44;100372.50;12145165;19;19915;-85
2023/09/18 14:12:50;;;;;;;;;;;29.60;46.70;;;29.03;46.79;100360.94;12145804;19;19925;-85
2023/09/18 14:16:52;;;;;;;;;;;29.60;46.90;;;28.96;46.72;100351.25;12145701;19;20378;-84
2023/09/18 14:20:53;;;;;;;;;;;29.50;47.10;;;28.90;46.65;100345.69;12143320;19;19927;-85
2023/09/18 14:24:55;;;;;;;;;;;29.40;47.20;;;28.79;46.61;100326.75;12141988;19;19918;-84
2023/09/18 14:28:57;;;;;;;;;;;29.40;47.50;;;28.76;46.65;100327.16;12144532;19;19925;-84
2023/09/18 14:33:01;;;;;;;;;;;29.30;47.40;;;28.76;46.49;100329.84;12144888;19;19919;-84
2023/09/18 14:37:03;;;;;;;;;;;29.20;47.50;;;28.64;46.59;100314.38;12143047;19;19942;-84
2023/09/18 14:41:07;;;;;;;;;;;29.20;47.70;;;28.63;46.75;100312.75;12139835;19;19923;-84
2023/09/18 14:45:08;;;;;;;;;;;29.10;47.50;;;28.40;46.78;100286.34;12135422;19;20257;-84
2023/09/18 14:49:10;;;;;;;;;;;29.10;47.30;;;28.56;46.75;100311.13;12142180;19;20300;-85
2023/09/18 14:53:12;;;;;;;;;;;29.00;47.40;;;28.51;47.05;100319.00;12142748;19;19915;-85
2023/09/18 14:57:14;;;;;;;;;;;29.00;47.30;;;28.40;46.76;100323.94;12144125;19;20284;-84
2023/09/18 15:01:15;;;;;;;;;;;28.90;47.20;;;28.32;46.43;100318.00;12137628;19;19915;-84
2023/09/18 15:05:17;;;;;;;;;;;28.80;47.10;;;28.37;46.74;100334.31;12139440;19;20204;-85
2023/09/18 15:09:19;;;;;;;;;;;28.80;47.20;;;28.27;46.84;100333.91;12138683;19;20237;-84
2023/09/18 15:13:21;;;;;;;;;;;28.70;47.10;;;28.26;47.07;100337.63;12137947;19;19923;-85
2023/09/18 15:17:23;;;;;;;;;;;28.70;47.20;;;28.26;47.19;100349.19;12138826;19;20443;-85
2023/09/18 15:21:25;;;;;;;;;;;28.70;46.90;;;28.20;46.82;100340.13;12140452;19;19927;-85
2023/09/18 15:25:27;;;;;;;;;;;28.70;47.00;;;28.18;46.85;100339.50;12139790;19;19919;-85
2023/09/18 15:29:30;;;;;;;;;;;28.60;46.70;;;28.14;46.94;100338.28;12140745;19;19927;-85
2023/09/18 15:33:32;;;;;;;;;;;28.60;46.50;;;28.06;46.89;100338.50;12140929;19;19942;-84
2023/09/18 15:37:35;;;;;;;;;;;28.50;46.90;;;28.16;46.94;100357.69;12138118;19;19944;-84
2023/09/18 15:41:38;;;;;;;;;;;28.60;46.80;;;28.14;46.79;100356.22;12133315;19;19932;-85
2023/09/18 15:45:40;;;;;;;;;;;28.60;46.80;;;28.11;46.81;100360.19;12142915;19;20014;-87
2023/09/18 15:49:41;;;;;;;;;;;28.60;46.90;;;28.01;47.01;100346.38;12134463;19;20685;-84
2023/09/18 15:53:42;;;;;;;;;;;28.60;46.80;;;28.10;46.50;100361.22;12137297;19;20295;-85
2023/09/18 15:57:44;;;;;;;;;;;28.50;46.80;;;28.06;46.67;100362.66;12137630;19;19930;-84
2023/09/18 16:01:46;;;;;;;;;;;28.50;46.40;;;27.96;46.73;100349.66;12134742;19;19923;-84
2023/09/18 16:05:51;;;;;;;;;;;28.50;46.70;;;27.90;46.45;100336.25;12136068;19;19929;-84
2023/09/18 16:09:56;;;;;;;;;;;28.40;46.40;;;27.90;46.84;100344.31;12135818;19;20707;-84
2023/09/18 16:13:57;;;;;;;;;;;28.40;46.40;;;27.87;46.85;100342.03;12135007;19;19922;-85
2023/09/18 16:17:59;;;;;;;;;;;28.40;46.40;;;27.85;46.87;100350.28;12139301;19;20283;-88
2023/09/18 16:22:01;;;;;;;;;;;28.30;46.20;;;27.84;46.68;100355.84;12141090;19;19937;-85
2023/09/18 16:26:03;;;;;;;;;;;28.30;46.20;;;27.78;46.54;100360.16;12153577;19;19918;-84
2023/09/18 16:30:05;;;;;;;;;;;28.30;45.80;;;27.64;46.76;100343.25;12145423;19;19935;-83
2023/09/18 16:34:07;;;;;;;;;;;28.20;46.20;;;27.66;46.67;100349.22;12146160;19;19979;-83
2023/09/18 16:38:08;;;;;;;;;;;28.20;46.20;;;27.66;46.74;100367.19;12145231;19;20006;-83
2023/09/18 16:42:10;;;;;;;;;;;28.10;46.00;;;27.60;46.75;100368.84;12143305;19;19934;-84
2023/09/18 16:46:11;;;;;;;;;;;28.10;46.20;;;27.58;46.69;100381.63;12145935;19;19926;-83
2023/09/18 16:50:13;;;;;;;;;;;28.00;46.30;;;27.44;46.74;100378.09;12142947;19;20024;-83
2023/09/18 16:54:15;;;;;;;;;;;28.00;46.50;;;27.39;46.87;100374.38;12144139;19;20367;-83
2023/09/18 16:58:17;;;;;;;;;;;28.00;46.90;;;27.34;46.85;100373.13;12144266;19;19929;-84
2023/09/18 17:02:19;;;;;;;;;;;27.90;46.70;;;27.27;46.52;100364.22;12145517;19;19918;-84
2023/09/18 17:06:21;;;;;;;;;;;27.80;46.70;;;27.14;47.10;100350.78;12145709;19;20827;-84
2023/09/18 17:10:23;;;;;;;;;;;27.70;47.20;;;27.16;46.61;100351.41;12141069;19;19911;-83
2023/09/18 17:14:24;;;;;;;;;;;27.60;46.80;;;27.06;46.81;100337.56;12144253;19;20705;-83
2023/09/18 17:18:26;;;;;;;;;;;27.50;47.20;;;27.00;47.04;100341.03;12143781;19;20252;-83
2023/09/18 17:22:28;;;;;;;;;;;27.50;47.00;;;26.96;46.65;100327.22;12145471;19;19923;-83
2023/09/18 17:26:29;;;;;;;;;;;27.40;47.20;;;26.92;46.64;100318.78;12144958;19;19930;-84
2023/09/18 17:30:31;;;;;;;;;;;27.30;47.20;;;26.88;46.61;100314.00;12141410;19;20313;-83
2023/09/18 17:34:33;;;;;;;;;;;27.30;47.30;;;26.86;46.64;100338.31;12141010;19;20058;-83
2023/09/18 17:38:35;;;;;;;;;;;27.30;47.20;;;26.80;46.66;100347.16;12143314;19;20417;-83
2023/09/18 17:42:37;;;;;;;;;;;27.20;47.30;;;26.79;46.78;100348.19;12142340;19;19956;-83
2023/09/18 17:46:40;;;;;;;;;;;27.10;47.30;;;26.74;46.81;100349.84;12145407;19;20687;-83
2023/09/18 17:50:42;;;;;;;;;;;27.10;47.40;;;26.69;47.04;100353.09;12141792;19;19919;-84
2023/09/18 17:54:44;;;;;;;;;;;27.10;47.40;;;26.65;47.08;100347.31;12146341;19;19943;-85
2023/09/18 17:58:45;;;;;;;;;;;27.00;47.50;;;26.61;46.91;100346.06;12147316;19;19922;-84
2023/09/18 18:02:47;;;;;;;;;;;27.00;47.50;;;26.52;46.97;100324.97;12146999;19;20726;-85
2023/09/18 18:06:48;;;;;;;;;;;26.90;47.60;;;26.53;47.01;100337.38;12144381;19;19919;-84
2023/09/18 18:10:50;;;;;;;;;;;26.90;47.50;;;26.44;46.93;100329.47;12144189;19;20508;-84